Terminal Aerodrome Forecast
Issued by NWS

Home | Current Version | Previous Version | Text Only | Print | Product List | Glossary On
Versions: 1 2 3 4 5 6 7 8 9 10 11 12 13 14 15 16 17 18 19 20 21 22
000
FTUS41 KCAR 261924 AAB
TAFPQI
TAF AMD
KPQI 261924Z 2619/2718 15006KT 6SM -RADZ OVC009
     FM262100 14005KT 5SM -RADZ SCT003 OVC005
     FM270000 14005KT 2SM -RADZ SCT002 OVC004
     FM271300 VRB03KT 3SM BR OVC006
     FM271600 VRB03KT 6SM BR OVC009=

USA.gov is the U.S. government's official web portal to all federal, state and local government web resources and services.